Oakwood Village, Ohio
Current Conditions -  °F | °C
As of 12:53 PM on Saturday 25 Oct 2014 (Local Time) from KBKL Reporting Station
Clear Clear  
Wind Chill: 65°   Ceiling: Unl
Heat Index: 65°   Visibility: 10mi
Dew Point: 53°   Wind: 17mph
Humidity: 65%   Direction: 230°SW
Pressure: 29.79"   Gusts: NA
Location:  41.3816°N, 81.5301°W
Report Text: KBKL 251653Z 23015KT 10SM CLR 18/12 A2979 RMK AO2 SLP085 T01830117
Loading
Personal Weather Stations






























Interactive Weather Map
Tropical Storm Tracking
New forecast layout! Learn more

10-Day Weather Forecast

Advertisements
Track Severe Weather on mobile